createdAt,value
2023-08-08T00:00:17.394Z,29.928000
2023-08-08T00:05:17.437Z,29.931000
2023-08-08T00:10:17.435Z,29.926000
2023-08-08T00:15:17.529Z,29.924000
2023-08-08T00:20:17.708Z,29.922000
2023-08-08T00:25:17.520Z,29.925000
2023-08-08T00:30:17.457Z,29.930000
2023-08-08T00:35:17.388Z,29.930000
2023-08-08T00:40:17.482Z,29.931000
2023-08-08T00:45:15.526Z,29.927000
2023-08-08T00:50:15.585Z,29.923000
2023-08-08T00:55:15.659Z,29.925000
2023-08-08T01:00:15.543Z,29.919000
2023-08-08T01:05:15.525Z,29.915000
2023-08-08T01:10:15.608Z,29.914000
2023-08-08T01:15:15.511Z,29.917000
2023-08-08T01:20:16.084Z,29.914000
2023-08-08T01:25:15.644Z,29.915000
2023-08-08T01:30:15.560Z,29.913000
2023-08-08T01:35:15.768Z,29.908000
2023-08-08T01:40:15.613Z,29.908000
2023-08-08T01:45:15.742Z,29.914000
2023-08-08T01:50:15.680Z,29.916000
2023-08-08T01:55:15.808Z,29.909000
2023-08-08T02:00:15.779Z,29.906000
2023-08-08T02:05:15.571Z,29.912000
2023-08-08T02:10:15.768Z,29.911000
2023-08-08T02:15:15.846Z,29.908000
2023-08-08T02:20:15.790Z,29.906000
2023-08-08T02:25:15.915Z,29.906000
2023-08-08T02:30:15.693Z,29.902000
2023-08-08T02:35:15.844Z,29.904000
2023-08-08T02:40:16.938Z,29.905000
2023-08-08T02:45:15.753Z,29.905000
2023-08-08T02:50:15.752Z,29.899000
2023-08-08T02:55:15.822Z,29.895000
2023-08-08T03:00:15.809Z,29.893000
2023-08-08T03:05:15.849Z,29.891000
2023-08-08T03:10:15.833Z,29.890000
2023-08-08T03:15:15.918Z,29.890000
2023-08-08T03:20:16.001Z,29.887000
2023-08-08T03:25:15.991Z,29.882000
2023-08-08T03:30:15.989Z,29.883000
2023-08-08T03:35:15.868Z,29.882000
2023-08-08T03:40:15.882Z,29.878000
2023-08-08T03:45:15.931Z,29.880000
2023-08-08T03:50:15.917Z,29.879000
2023-08-08T03:55:15.874Z,29.880000
2023-08-08T04:00:16.914Z,29.874000
2023-08-08T04:05:17.086Z,29.872000
2023-08-08T04:10:17.069Z,29.869000
2023-08-08T04:15:16.991Z,29.867000
2023-08-08T04:20:17.118Z,29.870000
2023-08-08T04:25:16.965Z,29.867000
2023-08-08T04:45:17.310Z,29.865000
2023-08-08T04:50:17.054Z,29.861000
2023-08-08T04:55:17.101Z,29.858000
2023-08-08T05:00:17.041Z,29.851000
2023-08-08T05:05:17.040Z,29.844000
2023-08-08T05:10:17.138Z,29.840000
2023-08-08T05:15:17.116Z,29.831000
2023-08-08T05:20:17.193Z,29.823000
2023-08-08T05:25:17.034Z,29.821000
2023-08-08T05:30:17.045Z,29.820000
2023-08-08T05:35:17.170Z,29.818000
2023-08-08T05:40:17.114Z,29.824000
2023-08-08T05:45:17.164Z,29.822000
2023-08-08T05:50:17.151Z,29.818000
2023-08-08T05:55:17.134Z,29.816000
2023-08-08T06:00:17.155Z,29.813000
2023-08-08T06:05:17.073Z,29.803000
2023-08-08T06:10:17.247Z,29.802000
2023-08-08T06:15:17.244Z,29.806000
2023-08-08T06:20:17.492Z,29.809000
2023-08-08T06:25:17.266Z,29.810000
2023-08-08T06:30:17.371Z,29.809000
2023-08-08T06:35:17.293Z,29.812000
2023-08-08T06:40:17.294Z,29.813000
2023-08-08T06:45:17.236Z,29.815000
2023-08-08T06:50:18.406Z,29.812000
2023-08-08T06:55:17.617Z,29.810000
2023-08-08T07:00:17.371Z,29.816000
2023-08-08T07:05:17.489Z,29.814000
2023-08-08T07:10:17.356Z,29.806000
2023-08-08T07:15:17.434Z,29.807000
2023-08-08T07:20:17.409Z,29.807000
2023-08-08T07:25:17.341Z,29.807000
2023-08-08T07:30:17.427Z,29.806000
2023-08-08T07:35:17.438Z,29.805000
2023-08-08T07:40:17.967Z,29.800000
2023-08-08T07:45:17.441Z,29.796000
2023-08-08T07:50:17.455Z,29.796000
2023-08-08T07:55:17.564Z,29.799000
2023-08-08T08:00:15.593Z,29.793000
2023-08-08T08:05:15.566Z,29.795000
2023-08-08T08:10:15.500Z,29.797000
2023-08-08T08:15:15.467Z,29.797000
2023-08-08T08:20:15.565Z,29.792000
2023-08-08T08:25:15.473Z,29.792000
2023-08-08T08:30:16.978Z,29.791000
2023-08-08T08:35:15.496Z,29.784000
2023-08-08T08:40:15.843Z,29.781000
2023-08-08T08:45:15.604Z,29.782000
2023-08-08T08:50:15.611Z,29.779000
2023-08-08T08:55:15.576Z,29.781000
2023-08-08T09:00:17.605Z,29.778000
2023-08-08T09:05:15.693Z,29.777000
2023-08-08T09:10:15.621Z,29.773000
2023-08-08T09:15:15.717Z,29.771000
2023-08-08T09:20:15.676Z,29.771000
2023-08-08T09:25:15.631Z,29.770000
2023-08-08T09:30:15.784Z,29.771000
2023-08-08T09:35:15.621Z,29.771000
2023-08-08T09:40:15.874Z,29.768000
2023-08-08T09:45:15.697Z,29.768000
2023-08-08T09:50:15.794Z,29.764000
2023-08-08T09:55:15.792Z,29.762000
2023-08-08T10:00:15.709Z,29.762000
2023-08-08T10:05:15.945Z,29.759000
2023-08-08T10:10:16.023Z,29.758000
2023-08-08T10:15:15.770Z,29.758000
2023-08-08T10:20:15.916Z,29.758000
2023-08-08T10:25:15.864Z,29.756000
2023-08-08T10:30:15.771Z,29.756000
2023-08-08T10:35:15.828Z,29.754000
2023-08-08T10:40:15.830Z,29.755000
2023-08-08T10:45:16.014Z,29.753000
2023-08-08T10:50:16.143Z,29.745000
2023-08-08T10:55:15.839Z,29.741000
2023-08-08T11:00:15.913Z,29.740000
2023-08-08T11:05:16.020Z,29.742000
2023-08-08T11:10:15.863Z,29.741000
2023-08-08T11:15:15.916Z,29.740000
2023-08-08T11:20:15.928Z,29.736000
2023-08-08T11:25:15.882Z,29.736000
2023-08-08T11:30:15.996Z,29.737000
2023-08-08T11:35:16.085Z,29.736000
2023-08-08T11:40:16.078Z,29.731000
2023-08-08T11:45:16.094Z,29.735000
2023-08-08T11:50:15.976Z,29.734000
2023-08-08T11:55:16.123Z,29.732000
2023-08-08T12:00:16.019Z,29.730000
2023-08-08T12:05:15.934Z,29.727000
2023-08-08T12:10:17.613Z,29.722000
2023-08-08T12:15:16.999Z,29.719000
2023-08-08T12:20:16.024Z,29.715000
2023-08-08T12:25:16.349Z,29.715000
2023-08-08T12:30:16.064Z,29.713000
2023-08-08T12:35:16.202Z,29.714000
2023-08-08T12:40:16.067Z,29.719000
2023-08-08T12:45:16.289Z,29.717000
2023-08-08T12:50:16.122Z,29.715000
2023-08-08T12:55:16.188Z,29.714000
2023-08-08T13:00:16.201Z,29.712000
2023-08-08T13:05:16.200Z,29.710000
2023-08-08T13:10:16.209Z,29.707000
2023-08-08T13:15:16.274Z,29.705000
2023-08-08T13:25:17.360Z,29.699000
2023-08-08T13:30:16.189Z,29.694000
2023-08-08T13:35:16.692Z,29.692000
2023-08-08T13:40:16.249Z,29.691000
2023-08-08T13:45:16.369Z,29.692000
2023-08-08T13:50:16.425Z,29.686000
2023-08-08T13:55:16.380Z,29.683000
2023-08-08T14:00:16.376Z,29.684000
2023-08-08T14:05:16.416Z,29.680000
2023-08-08T14:10:16.372Z,29.681000
2023-08-08T14:15:16.329Z,29.683000
2023-08-08T14:20:16.609Z,29.679000
2023-08-08T14:25:16.431Z,29.680000
2023-08-08T14:30:16.382Z,29.673000
2023-08-08T14:35:16.399Z,29.677000
2023-08-08T14:40:16.437Z,29.676000
2023-08-08T14:45:16.434Z,29.679000
2023-08-08T14:50:16.519Z,29.683000
2023-08-08T14:55:16.444Z,29.683000
2023-08-08T15:00:16.436Z,29.670000
2023-08-08T15:05:16.478Z,29.664000
2023-08-08T15:10:16.429Z,29.649000
2023-08-08T15:15:16.470Z,29.647000
2023-08-08T15:20:16.544Z,29.644000
2023-08-08T15:25:16.597Z,29.634000
2023-08-08T15:30:16.539Z,29.631000
2023-08-08T15:35:16.580Z,29.626000
2023-08-08T15:40:16.480Z,29.624000
2023-08-08T15:45:16.531Z,29.632000
2023-08-08T15:50:16.832Z,29.621000
2023-08-08T15:55:16.869Z,29.640000
2023-08-08T16:00:16.533Z,29.637000
2023-08-08T16:05:16.438Z,29.640000
2023-08-08T16:10:16.568Z,29.641000
2023-08-08T16:15:16.655Z,29.632000
2023-08-08T16:20:19.165Z,29.631000
2023-08-08T16:25:16.628Z,29.632000
2023-08-08T16:30:16.621Z,29.628000
2023-08-08T16:35:16.614Z,29.625000
2023-08-08T16:40:16.636Z,29.623000
2023-08-08T16:45:16.632Z,29.621000
2023-08-08T16:50:16.884Z,29.617000
2023-08-08T16:55:16.716Z,29.611000
2023-08-08T17:00:16.726Z,29.612000
2023-08-08T17:05:16.745Z,29.610000
2023-08-08T17:10:16.705Z,29.609000
2023-08-08T17:15:16.786Z,29.603000
2023-08-08T17:20:16.754Z,29.602000
2023-08-08T17:25:16.746Z,29.599000
2023-08-08T17:30:16.790Z,29.600000
2023-08-08T17:35:16.795Z,29.600000
2023-08-08T17:40:16.854Z,29.598000
2023-08-08T17:45:16.949Z,29.597000
2023-08-08T17:50:16.834Z,29.594000
2023-08-08T17:55:16.942Z,29.591000
2023-08-08T18:00:17.206Z,29.591000
2023-08-08T18:05:16.712Z,29.584000
2023-08-08T18:10:16.938Z,29.579000
2023-08-08T18:15:16.850Z,29.575000
2023-08-08T18:20:16.938Z,29.578000
2023-08-08T18:25:16.925Z,29.582000
2023-08-08T18:30:17.185Z,29.578000
2023-08-08T18:35:16.959Z,29.572000
2023-08-08T18:40:16.966Z,29.569000
2023-08-08T18:45:16.936Z,29.564000
2023-08-08T18:50:17.009Z,29.564000
2023-08-08T18:55:17.085Z,29.560000
2023-08-08T19:00:17.346Z,29.561000
2023-08-08T19:05:17.037Z,29.564000
2023-08-08T19:10:16.966Z,29.566000
2023-08-08T19:15:17.291Z,29.562000
2023-08-08T19:20:17.019Z,29.563000
2023-08-08T19:25:18.026Z,29.556000
2023-08-08T19:30:17.186Z,29.550000
2023-08-08T19:35:17.069Z,29.550000
2023-08-08T19:40:17.137Z,29.547000
2023-08-08T19:45:17.975Z,29.547000
2023-08-08T19:50:17.202Z,29.549000
2023-08-08T19:55:17.159Z,29.550000
2023-08-08T20:00:17.280Z,29.549000
2023-08-08T20:05:17.134Z,29.549000
2023-08-08T20:10:17.330Z,29.550000
2023-08-08T20:15:17.296Z,29.553000
2023-08-08T20:20:17.167Z,29.553000
2023-08-08T20:25:17.306Z,29.552000
2023-08-08T20:30:17.262Z,29.550000
2023-08-08T20:35:17.243Z,29.553000
2023-08-08T20:40:17.361Z,29.553000
2023-08-08T20:45:17.222Z,29.551000
2023-08-08T20:50:17.210Z,29.552000
2023-08-08T20:55:17.408Z,29.551000
2023-08-08T21:00:17.294Z,29.547000
2023-08-08T21:05:17.464Z,29.542000
2023-08-08T21:10:17.285Z,29.540000
2023-08-08T21:15:17.329Z,29.537000
2023-08-08T21:20:17.378Z,29.532000
2023-08-08T21:25:17.288Z,29.528000
2023-08-08T21:30:17.546Z,29.526000
2023-08-08T21:35:17.442Z,29.523000
2023-08-08T21:40:17.438Z,29.516000
2023-08-08T21:45:18.128Z,29.515000
2023-08-08T21:50:17.401Z,29.515000
2023-08-08T21:55:17.532Z,29.514000
2023-08-08T22:00:17.599Z,29.516000
2023-08-08T22:05:17.253Z,29.514000
2023-08-08T22:10:17.501Z,29.517000
2023-08-08T22:15:17.447Z,29.516000
2023-08-08T22:20:17.442Z,29.516000
2023-08-08T22:25:15.494Z,29.517000
2023-08-08T22:30:15.623Z,29.517000
2023-08-08T22:35:15.734Z,29.518000
2023-08-08T22:40:15.636Z,29.515000
2023-08-08T22:45:15.576Z,29.514000
2023-08-08T22:50:15.577Z,29.513000
2023-08-08T22:55:15.525Z,29.510000
2023-08-08T23:00:15.490Z,29.507000
2023-08-08T23:05:15.523Z,29.506000
2023-08-08T23:10:15.640Z,29.505000
2023-08-08T23:15:15.546Z,29.507000
2023-08-08T23:20:15.621Z,29.503000
2023-08-08T23:25:15.744Z,29.502000
2023-08-08T23:30:15.626Z,29.499000
2023-08-08T23:35:15.763Z,29.499000
2023-08-08T23:40:15.616Z,29.499000
2023-08-08T23:45:15.716Z,29.502000
2023-08-08T23:50:15.856Z,29.502000
2023-08-08T23:55:15.717Z,29.504000
